Time;durP1;ratioP1;P1;durP2;ratioP2;P2;SDS_P1;SDS_P2;PMS_P1;PMS_P2;Temp;Humidity;BMP_temperature;BMP_pressure;BME280_temperature;BME280_humidity;BME280_pressure;Samples;Min_cycle;Max_cycle;Signal;HPM_P1;HPM_P2
2023/06/29 00:00:31;;;;;;;5.28;2.55;;;;;;;18.48;63.00;99922.66;4477743;32;33647;-80
2023/06/29 00:02:58;;;;;;;4.75;2.28;;;;;;;17.58;66.97;99924.66;4478992;32;33924;-80
2023/06/29 00:05:26;;;;;;;4.68;2.25;;;;;;;17.62;67.31;99923.88;4475353;32;34503;-80
2023/06/29 00:07:58;;;;;;;5.25;2.30;;;;;;;17.81;66.51;99922.44;4479739;32;34495;-80
2023/06/29 00:10:26;;;;;;;5.15;2.50;;;;;;;18.32;64.77;99921.56;4479376;32;31780;-79
2023/06/29 00:12:54;;;;;;;4.40;2.20;;;;;;;18.70;63.49;99920.34;4471130;32;33309;-81
2023/06/29 00:15:21;;;;;;;4.62;2.33;;;;;;;18.81;62.85;99929.28;4480283;32;34017;-81
2023/06/29 00:17:49;;;;;;;5.78;2.50;;;;;;;18.84;62.00;99926.72;4477379;32;33883;-80
2023/06/29 00:20:17;;;;;;;5.28;2.28;;;;;;;18.89;61.70;99925.03;4475040;32;33466;-80
2023/06/29 00:22:47;;;;;;;5.20;2.28;;;;;;;18.62;62.60;99925.47;4479504;32;32962;-79
2023/06/29 00:25:17;;;;;;;4.85;2.10;;;;;;;18.98;61.43;99925.13;4481608;32;33354;-80
2023/06/29 00:27:44;;;;;;;4.70;2.30;;;;;;;18.61;62.86;99924.63;4467998;32;33175;-81
2023/06/29 00:30:13;;;;;;;7.43;2.30;;;;;;;18.06;64.53;99929.03;4467837;32;33283;-80
2023/06/29 00:32:40;;;;;;;4.25;2.40;;;;;;;18.70;61.58;99925.59;4478969;32;33898;-81
2023/06/29 00:35:10;;;;;;;5.75;2.50;;;;;;;18.55;62.05;99924.53;4481474;32;33522;-81
2023/06/29 00:37:38;;;;;;;4.22;2.55;;;;;;;18.67;61.12;99922.06;4482750;32;34395;-80
2023/06/29 00:40:07;;;;;;;6.10;2.50;;;;;;;19.20;58.76;99925.37;4475723;32;34388;-80
2023/06/29 00:42:36;;;;;;;5.47;2.70;;;;;;;19.11;59.11;99920.94;4470183;32;32824;-81
2023/06/29 00:45:04;;;;;;;5.05;2.50;;;;;;;18.94;59.74;99920.72;4479407;32;33688;-80
2023/06/29 00:47:32;;;;;;;6.50;2.87;;;;;;;19.13;59.64;99918.31;4469424;32;33253;-81
2023/06/29 00:50:00;;;;;;;5.78;2.90;;;;;;;18.79;60.83;99915.22;4483028;32;34659;-80
2023/06/29 00:52:28;;;;;;;5.47;2.83;;;;;;;18.14;62.92;99921.25;4472012;32;33997;-81
2023/06/29 00:54:57;;;;;;;5.60;2.80;;;;;;;18.13;62.98;99920.38;4479234;32;33586;-80
2023/06/29 00:57:25;;;;;;;5.55;3.15;;;;;;;18.12;62.97;99916.03;4467243;32;33627;-80
2023/06/29 00:59:54;;;;;;;5.18;2.90;;;;;;;18.01;63.68;99917.59;4480457;32;33775;-81
2023/06/29 01:02:22;;;;;;;4.90;2.83;;;;;;;18.21;63.16;99907.41;4459748;32;31293;-79
2023/06/29 01:04:50;;;;;;;4.78;2.90;;;;;;;18.07;63.86;99915.06;4466208;32;33552;-80
2023/06/29 01:07:34;;;;;;;5.97;2.80;;;;;;;17.84;64.29;99918.16;4477205;32;33649;-80
2023/06/29 01:10:04;;;;;;;5.20;2.60;;;;;;;17.80;64.28;99915.44;4474821;32;33074;-80
2023/06/29 01:12:34;;;;;;;5.82;2.78;;;;;;;17.61;64.95;99915.09;4481008;32;33124;-81
2023/06/29 01:15:04;;;;;;;6.07;2.60;;;;;;;17.46;66.16;99905.25;4459349;32;32102;-81
2023/06/29 01:17:32;;;;;;;4.22;2.60;;;;;;;17.43;68.18;99912.16;4466430;32;33541;-81
2023/06/29 01:20:00;;;;;;;4.90;2.70;;;;;;;17.08;69.83;99902.78;4465591;32;33486;-80
2023/06/29 01:22:48;;;;;;;5.20;2.78;;;;;;;17.25;69.08;99907.47;4467121;32;33177;-81
2023/06/29 01:25:15;;;;;;;4.40;2.70;;;;;;;17.45;67.96;99907.84;4480958;32;32960;-81
2023/06/29 01:27:43;;;;;;;6.28;2.90;;;;;;;17.09;69.57;99908.87;4482662;32;34646;-80
2023/06/29 01:30:11;;;;;;;4.90;2.83;;;;;;;17.37;68.67;99904.19;4482644;32;34594;-80
2023/06/29 01:32:39;;;;;;;4.50;2.55;;;;;;;17.59;67.96;99910.69;4473624;32;34031;-80
2023/06/29 01:35:08;;;;;;;4.82;2.42;;;;;;;17.81;66.98;99912.84;4483361;32;34036;-81
2023/06/29 01:37:45;;;;;;;4.90;2.67;;;;;;;18.29;65.09;99908.41;4472165;32;33620;-80
2023/06/29 01:40:17;;;;;;;6.32;2.62;;;;;;;18.50;64.04;99905.22;4475228;32;32551;-80
2023/06/29 01:42:45;;;;;;;6.22;2.78;;;;;;;18.24;64.60;99910.09;4479386;32;33443;-80
2023/06/29 01:45:13;;;;;;;4.65;2.70;;;;;;;17.84;66.14;99906.81;4482564;32;33690;-80
2023/06/29 01:47:40;;;;;;;4.60;2.70;;;;;;;18.03;65.45;99908.00;4479866;32;33514;-80
2023/06/29 01:50:10;;;;;;;5.65;2.95;;;;;;;18.00;65.59;99897.47;4476024;32;34197;-81
2023/06/29 01:52:37;;;;;;;5.47;2.73;;;;;;;18.17;65.06;99906.47;4481492;32;33037;-80
2023/06/29 01:55:06;;;;;;;6.30;2.83;;;;;;;17.84;65.99;99902.44;4471525;32;33499;-81
2023/06/29 01:57:34;;;;;;;6.03;3.03;;;;;;;17.86;66.37;99895.47;4484699;32;34129;-80
2023/06/29 02:00:06;;;;;;;5.90;3.00;;;;;;;17.56;67.80;99894.91;4477671;32;33403;-81
2023/06/29 02:02:40;;;;;;;5.78;2.92;;;;;;;18.03;66.36;99894.91;4476375;32;33334;-80
2023/06/29 02:05:08;;;;;;;6.30;3.03;;;;;;;18.01;66.40;99899.22;4475963;32;33485;-80
2023/06/29 02:07:35;;;;;;;5.65;2.80;;;;;;;17.95;66.66;99894.78;4472756;32;33801;-81
2023/06/29 02:10:03;;;;;;;6.22;2.87;;;;;;;17.99;66.53;99896.59;4479649;32;33716;-80
2023/06/29 02:12:31;;;;;;;6.20;2.90;;;;;;;18.27;65.28;99897.91;4479285;32;33206;-80
2023/06/29 02:14:58;;;;;;;5.10;2.90;;;;;;;17.94;66.58;99899.97;4482062;32;34008;-80
2023/06/29 02:17:26;;;;;;;4.70;2.90;;;;;;;17.82;66.98;99898.88;4472067;32;33731;-80
2023/06/29 02:19:54;;;;;;;5.93;3.00;;;;;;;17.97;66.30;99898.31;4483400;32;34175;-81
2023/06/29 02:22:21;;;;;;;6.12;3.20;;;;;;;18.38;64.75;99892.81;4471732;32;32746;-80
2023/06/29 02:24:50;;;;;;;5.65;3.28;;;;;;;18.82;63.04;99894.31;4477651;32;33450;-81
2023/06/29 02:27:18;;;;;;;6.23;3.33;;;;;;;19.08;62.34;99893.75;4484058;32;34626;-81
2023/06/29 02:29:45;;;;;;;6.85;3.40;;;;;;;19.09;62.00;99892.91;4480593;32;34388;-80
2023/06/29 02:32:13;;;;;;;6.10;3.30;;;;;;;19.11;62.20;99899.06;4483489;32;34186;-81
2023/06/29 02:34:41;;;;;;;6.18;3.30;;;;;;;19.25;61.59;99892.19;4472865;32;34336;-80
2023/06/29 02:37:08;;;;;;;5.68;3.00;;;;;;;19.30;61.09;99895.75;4482596;32;33823;-80
2023/06/29 02:39:36;;;;;;;6.03;3.70;;;;;;;19.19;61.80;99897.38;4481867;32;33857;-80
2023/06/29 02:42:04;;;;;;;6.40;3.57;;;;;;;19.40;60.70;99900.25;4477599;32;33143;-81
2023/06/29 02:44:31;;;;;;;6.35;3.60;;;;;;;18.27;64.93;99891.75;4482322;32;33394;-81
2023/06/29 02:46:59;;;;;;;7.60;3.40;;;;;;;18.00;65.80;99900.06;4470324;32;33503;-80
2023/06/29 02:49:29;;;;;;;5.75;3.30;;;;;;;17.95;66.42;99900.00;4481885;32;33558;-81
2023/06/29 02:51:57;;;;;;;6.60;3.42;;;;;;;18.31;64.96;99901.47;4484069;32;33660;-80
2023/06/29 02:54:24;;;;;;;6.00;3.20;;;;;;;18.15;65.65;99897.69;4475333;32;33783;-80
2023/06/29 02:56:52;;;;;;;5.60;2.95;;;;;;;18.30;64.60;99901.44;4481754;32;34249;-80
2023/06/29 02:59:21;;;;;;;5.50;3.05;;;;;;;18.30;64.77;99907.56;4481549;32;34476;-81
2023/06/29 03:01:48;;;;;;;6.32;3.25;;;;;;;18.14;65.42;99911.69;4474281;32;32591;-81
2023/06/29 03:04:16;;;;;;;6.18;2.90;;;;;;;18.50;62.45;99905.22;4484216;32;33777;-81
2023/06/29 03:06:43;;;;;;;6.65;3.37;;;;;;;18.60;62.71;99901.87;4471060;32;33215;-81
2023/06/29 03:09:11;;;;;;;5.95;3.20;;;;;;;18.58;62.93;99908.84;4470037;32;33746;-80
2023/06/29 03:11:39;;;;;;;4.60;2.80;;;;;;;18.32;64.00;99916.31;4479202;32;33387;-81
2023/06/29 03:14:06;;;;;;;5.97;3.00;;;;;;;18.50;63.05;99905.22;4474450;32;33110;-80
2023/06/29 03:16:34;;;;;;;6.25;2.95;;;;;;;18.55;63.26;99902.66;4484108;32;33830;-80
2023/06/29 03:19:01;;;;;;;5.07;2.80;;;;;;;18.67;62.28;99903.69;4473169;32;33885;-80
2023/06/29 03:21:29;;;;;;;5.03;2.60;;;;;;;18.99;60.84;99903.28;4483752;32;33270;-81
2023/06/29 03:23:56;;;;;;;6.05;2.65;;;;;;;18.57;62.37;99901.81;4477526;32;33573;-79
2023/06/29 03:26:24;;;;;;;6.45;2.53;;;;;;;18.72;62.30;99910.78;4478149;32;34363;-81
2023/06/29 03:28:51;;;;;;;4.45;2.80;;;;;;;18.80;61.77;99903.91;4473358;32;33161;-81
2023/06/29 03:31:19;;;;;;;5.72;2.25;;;;;;;18.80;61.88;99914.41;4471139;32;33371;-80
2023/06/29 03:33:47;;;;;;;6.00;2.53;;;;;;;18.77;62.19;99904.72;4478731;32;34888;-81
2023/06/29 03:36:15;;;;;;;5.57;2.55;;;;;;;18.89;61.97;99904.03;4475882;32;33373;-80
2023/06/29 03:38:42;;;;;;;5.60;2.47;;;;;;;19.20;60.51;99907.00;4469318;32;34511;-80
2023/06/29 03:41:10;;;;;;;5.00;2.55;;;;;;;19.06;60.97;99909.47;4482672;32;33421;-80
2023/06/29 03:43:37;;;;;;;6.00;2.90;;;;;;;18.67;62.94;99903.69;4481689;32;33372;-80
2023/06/29 03:46:05;;;;;;;6.03;2.72;;;;;;;18.92;62.24;99896.19;4472611;32;33685;-81
2023/06/29 03:48:33;;;;;;;5.47;2.55;;;;;;;18.94;62.18;99906.72;4481512;32;33434;-81
2023/06/29 03:51:01;;;;;;;5.80;2.60;;;;;;;18.82;62.88;99903.06;4480838;32;33103;-80
2023/06/29 03:53:29;;;;;;;5.18;2.80;;;;;;;18.99;62.10;99916.41;4473594;32;34512;-81
2023/06/29 03:55:56;;;;;;;5.72;2.55;;;;;;;19.12;61.53;99909.53;4475973;32;33891;-80
2023/06/29 03:58:24;;;;;;;7.55;2.67;;;;;;;19.19;61.37;99905.25;4479329;32;33824;-80
2023/06/29 04:00:51;;;;;;;8.60;2.80;;;;;;;19.41;60.42;99914.25;4471146;32;33206;-80
2023/06/29 04:03:19;;;;;;;4.97;2.55;;;;;;;19.42;60.24;99910.78;4483267;32;34489;-80
2023/06/29 04:05:47;;;;;;;5.10;2.35;;;;;;;19.32;60.27;99915.03;4479636;32;35107;-81
2023/06/29 04:08:14;;;;;;;4.72;2.50;;;;;;;19.37;59.84;99918.63;4476898;32;33416;-81
2023/06/29 04:10:42;;;;;;;5.80;2.70;;;;;;;19.43;60.27;99918.69;4483521;32;33142;-80
2023/06/29 04:13:09;;;;;;;5.00;2.50;;;;;;;19.24;60.11;99917.59;4482427;32;33796;-80
2023/06/29 04:15:37;;;;;;;5.07;2.47;;;;;;;19.47;59.32;99914.34;4476009;32;33319;-81
2023/06/29 04:18:05;;;;;;;4.53;2.80;;;;;;;19.53;59.03;99918.75;4474214;32;31775;-81
2023/06/29 04:20:32;;;;;;;6.30;2.53;;;;;;;19.56;59.58;99916.16;4483032;32;33327;-81
2023/06/29 04:23:00;;;;;;;5.43;2.60;;;;;;;19.53;59.31;99910.88;4482993;32;33985;-80
2023/06/29 04:25:28;;;;;;;4.70;2.60;;;;;;;19.72;57.64;99915.50;4479628;32;33855;-80
2023/06/29 04:27:55;;;;;;;5.65;2.60;;;;;;;19.89;56.77;99904.25;4477321;32;34456;-80
2023/06/29 04:30:23;;;;;;;5.05;2.53;;;;;;;19.79;56.97;99904.16;4472510;32;33266;-80
2023/06/29 04:32:51;;;;;;;6.12;2.70;;;;;;;19.48;58.67;99899.44;4480493;32;33549;-81
2023/06/29 04:35:18;;;;;;;6.10;2.57;;;;;;;19.41;59.09;99904.66;4470444;32;33847;-81
2023/06/29 04:37:46;;;;;;;5.40;2.67;;;;;;;19.99;56.13;99908.69;4478065;32;33125;-79
2023/06/29 04:40:14;;;;;;;5.95;2.80;;;;;;;20.08;55.05;99908.78;4476318;32;34097;-80
2023/06/29 04:42:46;;;;;;;6.15;2.60;;;;;;;20.00;55.48;99915.72;4478119;32;32946;-80
2023/06/29 04:45:19;;;;;;;7.75;2.87;;;;;;;19.81;56.32;99912.94;4481308;32;34014;-80
2023/06/29 04:47:50;;;;;;;6.35;2.58;;;;;;;19.99;55.27;99917.50;4477907;32;33464;-79
2023/06/29 04:50:25;;;;;;;5.35;2.45;;;;;;;19.73;56.62;99912.00;4476449;32;33057;-81
2023/06/29 04:52:54;;;;;;;5.40;2.95;;;;;;;20.04;55.66;99912.25;4480395;32;33118;-80
2023/06/29 04:55:22;;;;;;;7.00;2.75;;;;;;;19.73;56.60;99908.47;4474605;32;33434;-80
2023/06/29 04:57:50;;;;;;;5.05;2.62;;;;;;;19.87;56.23;99908.59;4470361;32;33892;-80
2023/06/29 05:00:19;;;;;;;7.25;2.75;;;;;;;20.29;53.51;99901.94;4477565;32;33240;-80
2023/06/29 05:02:47;;;;;;;6.30;2.95;;;;;;;20.29;53.72;99907.19;4479802;32;35415;-80
2023/06/29 05:05:16;;;;;;;6.70;2.72;;;;;;;20.24;54.07;99907.13;4472155;32;34463;-81
2023/06/29 05:07:43;;;;;;;6.05;2.60;;;;;;;20.06;55.03;99910.50;4461290;32;32077;-77
2023/06/29 05:10:11;;;;;;;5.40;2.80;;;;;;;20.16;54.27;99911.47;4476216;32;33776;-79
2023/06/29 05:12:38;;;;;;;5.18;2.30;;;;;;;20.22;54.40;99901.87;4483711;32;33635;-78
2023/06/29 05:15:07;;;;;;;4.40;2.30;;;;;;;20.06;56.74;99905.25;4478967;31;33625;-78
2023/06/29 05:17:35;;;;;;;5.35;2.40;;;;;;;20.50;54.49;99895.94;4484370;32;33810;-79
2023/06/29 05:20:03;;;;;;;5.47;2.15;;;;;;;20.64;54.38;99894.28;4481329;32;33251;-78
2023/06/29 05:22:31;;;;;;;5.65;2.50;;;;;;;20.83;54.61;99900.50;4477104;32;33492;-78
2023/06/29 05:24:59;;;;;;;6.47;2.50;;;;;;;21.21;51.87;99891.88;4478076;32;33782;-78
2023/06/29 05:27:27;;;;;;;6.65;2.47;;;;;;;21.22;52.41;99898.91;4474743;32;33365;-79
2023/06/29 05:29:54;;;;;;;6.35;2.42;;;;;;;21.32;52.28;99898.03;4472042;32;33822;-78
2023/06/29 05:32:22;;;;;;;4.95;2.20;;;;;;;21.33;51.97;99904.22;4475258;32;33388;-78
2023/06/29 05:34:50;;;;;;;4.80;2.35;;;;;;;21.38;52.34;99898.09;4457655;32;32136;-78
2023/06/29 05:37:17;;;;;;;5.65;2.45;;;;;;;21.69;50.60;99906.06;4478397;32;33159;-78
2023/06/29 05:39:45;;;;;;;6.82;2.30;;;;;;;21.78;50.46;99910.47;4479671;32;33071;-80
2023/06/29 05:42:12;;;;;;;5.50;2.20;;;;;;;21.82;50.34;99906.94;4484070;32;33896;-80
2023/06/29 05:44:40;;;;;;;5.93;2.20;;;;;;;21.76;50.25;99910.44;4482262;32;33641;-80
2023/06/29 05:47:08;;;;;;;5.50;2.17;;;;;;;21.94;50.21;99906.06;4483107;32;34817;-80
2023/06/29 05:49:36;;;;;;;4.95;2.62;;;;;;;21.65;50.75;99909.56;4470877;32;33367;-80
2023/06/29 05:52:04;;;;;;;6.10;2.83;;;;;;;21.97;49.76;99906.09;4478269;32;33821;-80
2023/06/29 05:54:33;;;;;;;4.95;2.40;;;;;;;21.89;49.43;99902.56;4473231;32;33458;-80
2023/06/29 05:57:00;;;;;;;6.65;2.60;;;;;;;21.84;50.63;99905.19;4479560;32;34485;-80
2023/06/29 05:59:29;;;;;;;6.32;2.47;;;;;;;21.93;50.23;99899.91;4472953;32;33310;-80
2023/06/29 06:01:58;;;;;;;4.45;2.22;;;;;;;22.10;49.45;99910.47;4475409;32;33318;-81
2023/06/29 06:04:25;;;;;;;4.90;2.10;;;;;;;22.10;49.55;99913.12;4477115;32;33845;-80
2023/06/29 06:06:53;;;;;;;5.90;2.72;;;;;;;22.06;49.92;99910.47;4475720;32;33515;-81
2023/06/29 06:09:20;;;;;;;7.27;2.73;;;;;;;22.05;50.22;99904.31;4481996;32;33948;-81
2023/06/29 06:11:48;;;;;;;5.40;2.40;;;;;;;22.49;48.07;99897.25;4470333;32;33888;-80
2023/06/29 06:14:15;;;;;;;6.15;2.33;;;;;;;22.27;48.75;99899.03;4475436;32;33834;-81
2023/06/29 06:16:43;;;;;;;6.32;2.60;;;;;;;22.29;48.88;99898.19;4473602;32;34070;-81
2023/06/29 06:19:11;;;;;;;6.30;2.35;;;;;;;22.38;48.95;99897.28;4478279;32;33064;-81
2023/06/29 06:21:38;;;;;;;7.25;2.67;;;;;;;22.63;48.80;99897.22;4477326;32;34337;-80
2023/06/29 06:24:06;;;;;;;7.12;2.97;;;;;;;22.90;47.46;99891.84;4475311;32;33773;-80
2023/06/29 06:26:34;;;;;;;4.68;2.20;;;;;;;22.85;48.00;99904.22;4480676;32;33513;-80
2023/06/29 06:29:01;;;;;;;6.28;2.50;;;;;;;22.82;47.99;99898.91;4478437;32;34662;-80
2023/06/29 06:31:29;;;;;;;5.37;2.80;;;;;;;23.11;47.52;99900.59;4478317;32;34331;-80
2023/06/29 06:34:02;;;;;;;6.30;2.67;;;;;;;23.26;47.00;99899.66;4472458;32;32112;-80
2023/06/29 06:36:30;;;;;;;5.27;2.40;;;;;;;23.43;46.79;99903.06;4480003;32;32362;-79
2023/06/29 06:38:58;;;;;;;5.90;2.50;;;;;;;23.51;47.09;99905.66;4479015;32;33096;-80
2023/06/29 06:41:26;;;;;;;4.03;2.07;;;;;;;23.80;45.69;99899.31;4479660;32;33810;-80
2023/06/29 06:43:55;;;;;;;6.30;2.47;;;;;;;23.50;47.05;99901.25;4474879;32;34484;-80
2023/06/29 06:46:23;;;;;;;5.97;2.20;;;;;;;23.84;45.90;99898.41;4479830;32;33808;-80
2023/06/29 06:48:51;;;;;;;6.78;2.58;;;;;;;24.04;45.48;99895.59;4477972;32;33683;-80
2023/06/29 06:51:19;;;;;;;5.55;2.35;;;;;;;24.06;45.67;99891.16;4478365;32;34252;-80
2023/06/29 06:53:46;;;;;;;5.65;2.47;;;;;;;24.26;44.64;99883.03;4477402;32;32255;-80
2023/06/29 06:56:14;;;;;;;5.57;2.40;;;;;;;24.10;44.75;99898.19;4468553;32;33745;-80
2023/06/29 06:58:42;;;;;;;5.03;2.37;;;;;;;24.40;44.22;99899.66;4470386;32;33252;-81
2023/06/29 07:01:09;;;;;;;5.05;2.30;;;;;;;24.16;45.90;99905.19;4475133;32;33766;-80
2023/06/29 07:03:37;;;;;;;4.70;2.30;;;;;;;24.52;43.84;99898.69;4476186;32;33247;-79
2023/06/29 07:06:05;;;;;;;8.25;2.65;;;;;;;24.74;43.18;99901.97;4478086;32;34691;-80
2023/06/29 07:08:34;;;;;;;4.82;2.33;;;;;;;24.60;44.10;99896.84;4463765;32;32677;-80
2023/06/29 07:11:02;;;;;;;5.70;2.40;;;;;;;24.58;43.45;99905.69;4481637;32;33678;-79
2023/06/29 07:13:31;;;;;;;8.23;2.80;;;;;;;24.42;43.82;99905.81;4480378;32;34482;-80
2023/06/29 07:15:58;;;;;;;4.50;1.95;;;;;;;24.92;43.25;99909.72;4475058;32;33906;-81
2023/06/29 07:18:26;;;;;;;5.62;2.17;;;;;;;25.13;42.36;99907.69;4480712;32;34088;-80
2023/06/29 07:20:54;;;;;;;5.50;2.20;;;;;;;25.10;42.84;99902.41;4481214;32;34453;-79
2023/06/29 07:23:24;;;;;;;6.93;2.33;;;;;;;24.89;44.09;99903.56;4471380;32;33819;-80
2023/06/29 07:25:55;;;;;;;6.87;2.63;;;;;;;25.62;42.78;99914.97;4476250;32;33808;-80
2023/06/29 07:28:23;;;;;;;4.65;2.47;;;;;;;25.74;41.75;99910.37;4472865;32;33779;-81
2023/06/29 07:30:51;;;;;;;4.62;1.98;;;;;;;25.67;40.95;99907.84;4483378;32;34467;-80
2023/06/29 07:33:19;;;;;;;5.28;2.40;;;;;;;25.63;42.12;99902.59;4470610;32;34280;-81
2023/06/29 07:35:46;;;;;;;5.60;2.20;;;;;;;25.99;41.95;99902.94;4478548;32;34003;-81
2023/06/29 07:38:14;;;;;;;5.12;2.08;;;;;;;26.19;41.61;99902.59;4484099;32;33029;-81
2023/06/29 07:40:42;;;;;;;6.30;2.45;;;;;;;26.18;41.63;99906.16;4474625;31;34703;-81
2023/06/29 07:43:10;;;;;;;5.10;2.08;;;;;;;26.69;39.62;99903.47;4479786;32;33769;-80
2023/06/29 07:45:38;;;;;;;5.20;1.92;;;;;;;26.73;39.96;99905.16;4481077;32;34400;-81
2023/06/29 07:48:06;;;;;;;5.12;2.10;;;;;;;26.88;39.66;99904.84;4482847;32;33636;-81
2023/06/29 07:50:33;;;;;;;5.65;2.08;;;;;;;26.94;39.92;99901.19;4482777;32;33729;-80
2023/06/29 07:53:01;;;;;;;4.60;2.10;;;;;;;27.24;39.17;99902.34;4483524;32;34654;-81
2023/06/29 07:55:29;;;;;;;4.20;2.03;;;;;;;27.42;38.85;99897.53;4483578;32;34260;-81
2023/06/29 07:57:56;;;;;;;5.25;2.25;;;;;;;27.53;37.57;99897.28;4483228;32;33900;-81
2023/06/29 08:00:27;;;;;;;4.93;2.10;;;;;;;27.53;37.53;99903.47;4475894;32;33539;-81
2023/06/29 08:02:54;;;;;;;6.57;2.22;;;;;;;27.24;38.46;99906.75;4482647;32;33847;-80
2023/06/29 08:05:23;;;;;;;4.50;2.13;;;;;;;27.54;37.36;99907.88;4482131;32;33936;-80
2023/06/29 08:07:53;;;;;;;6.45;2.12;;;;;;;27.51;37.75;99907.97;4471633;32;32388;-80
2023/06/29 08:10:21;;;;;;;4.87;2.30;;;;;;;27.71;37.45;99906.62;4477171;32;33570;-80
2023/06/29 08:12:49;;;;;;;5.33;2.07;;;;;;;27.69;37.25;99906.66;4472401;32;33727;-80
2023/06/29 08:15:16;;;;;;;5.00;2.28;;;;;;;27.69;37.48;99900.47;4480750;32;33773;-80
2023/06/29 08:17:44;;;;;;;4.68;2.28;;;;;;;27.77;37.44;99906.47;4482779;32;33501;-80
2023/06/29 08:20:12;;;;;;;4.45;2.30;;;;;;;27.97;36.83;99904.22;4475454;32;32937;-81
2023/06/29 08:22:41;;;;;;;4.62;2.22;;;;;;;27.96;37.25;99913.12;4468815;32;33808;-80
2023/06/29 08:25:09;;;;;;;5.60;2.17;;;;;;;27.88;37.37;99909.78;4479151;32;33444;-80
2023/06/29 08:27:37;;;;;;;5.45;2.08;;;;;;;27.87;37.52;99905.31;4478596;32;33977;-80
2023/06/29 08:30:05;;;;;;;6.25;2.30;;;;;;;27.86;37.47;99911.56;4474832;32;33963;-80
2023/06/29 08:32:32;;;;;;;5.80;2.22;;;;;;;28.03;37.68;99906.72;4474152;32;33792;-80
2023/06/29 08:35:00;;;;;;;5.18;2.12;;;;;;;28.02;37.74;99901.44;4475076;32;33729;-80
2023/06/29 08:37:28;;;;;;;4.63;2.20;;;;;;;27.81;37.52;99902.81;4469353;32;31324;-80
2023/06/29 08:39:56;;;;;;;5.70;2.10;;;;;;;28.06;36.99;99899.56;4468012;32;32110;-80
2023/06/29 08:42:24;;;;;;;5.18;2.00;;;;;;;28.17;36.80;99900.19;4477360;32;33442;-80
2023/06/29 08:44:53;;;;;;;4.47;2.10;;;;;;;28.11;37.40;99895.88;4478649;32;33709;-80
2023/06/29 08:47:21;;;;;;;6.12;2.28;;;;;;;28.40;36.28;99891.56;4480269;32;32943;-80
2023/06/29 08:49:49;;;;;;;4.75;2.03;;;;;;;28.22;37.16;99893.81;4470871;32;33839;-81
2023/06/29 08:52:17;;;;;;;4.53;2.00;;;;;;;28.30;37.88;99890.94;4458923;32;34659;-81
2023/06/29 08:54:46;;;;;;;3.92;1.80;;;;;;;28.66;36.97;99887.34;4456349;32;33926;-80
2023/06/29 08:57:14;;;;;;;4.57;2.00;;;;;;;28.86;35.43;99884.09;4481294;32;33937;-81
2023/06/29 08:59:42;;;;;;;5.30;1.80;;;;;;;28.73;36.43;99884.47;4473997;32;32384;-81
2023/06/29 09:02:10;;;;;;;4.18;2.00;;;;;;;29.07;36.36;99883.50;4476352;32;33337;-81
2023/06/29 09:04:40;;;;;;;3.70;1.73;;;;;;;29.09;35.94;99892.31;4476467;32;34587;-80
2023/06/29 09:07:07;;;;;;;4.12;1.77;;;;;;;29.37;34.99;99891.50;4476520;32;33329;-80
2023/06/29 09:09:35;;;;;;;6.62;2.03;;;;;;;29.14;35.18;99895.72;4453792;32;32506;-82
2023/06/29 09:12:03;;;;;;;4.70;1.80;;;;;;;29.21;34.72;99897.31;4466359;32;33491;-79
2023/06/29 09:14:35;;;;;;;3.92;1.77;;;;;;;29.13;34.98;99887.75;4476750;32;34417;-80
2023/06/29 09:17:15;;;;;;;4.87;1.87;;;;;;;28.49;36.17;99893.09;4471073;32;33635;-79
2023/06/29 09:19:57;;;;;;;4.78;1.85;;;;;;;29.21;35.26;99886.63;4471826;32;32718;-82
2023/06/29 09:22:26;;;;;;;4.00;1.90;;;;;;;29.29;35.08;99893.53;4479954;32;33897;-79
2023/06/29 09:24:58;;;;;;;4.87;1.90;;;;;;;29.59;34.16;99889.91;4481731;32;34019;-81
2023/06/29 09:27:39;;;;;;;3.65;1.92;;;;;;;29.48;34.92;99889.38;4478690;32;33406;-79
2023/06/29 09:30:08;;;;;;;5.63;2.17;;;;;;;29.41;34.82;99878.00;4482124;32;33576;-82
2023/06/29 09:32:37;;;;;;;5.62;1.98;;;;;;;29.41;34.32;99877.13;4470578;32;34566;-78
2023/06/29 09:35:06;;;;;;;3.85;1.92;;;;;;;29.34;34.85;99879.13;4468991;32;33944;-79
2023/06/29 09:37:35;;;;;;;3.90;1.90;;;;;;;29.50;35.05;99881.31;4467793;32;33859;-81
2023/06/29 09:40:09;;;;;;;3.72;1.70;;;;;;;29.82;34.18;99887.41;4479392;32;34285;-79
2023/06/29 09:42:38;;;;;;;4.87;1.80;;;;;;;29.71;33.93;99879.72;4471170;32;32793;-80
2023/06/29 09:45:14;;;;;;;4.82;1.90;;;;;;;29.96;33.77;99875.38;4470778;32;33655;-79
2023/06/29 09:47:49;;;;;;;5.47;2.42;;;;;;;30.04;33.58;99882.22;4474481;32;32397;-79
2023/06/29 09:50:23;;;;;;;3.40;1.73;;;;;;;30.12;33.44;99872.16;4476953;32;33732;-78
2023/06/29 09:52:51;;;;;;;5.53;2.00;;;;;;;30.16;33.64;99881.81;4476590;32;33946;-79
2023/06/29 09:55:32;;;;;;;4.32;1.75;;;;;;;30.23;33.16;99880.69;4480088;32;33814;-81
2023/06/29 09:58:00;;;;;;;4.20;1.87;;;;;;;30.52;32.97;99868.97;4481677;32;32538;-78
2023/06/29 10:00:28;;;;;;;4.53;1.93;;;;;;;30.50;33.20;99875.28;4472195;32;34368;-78
2023/06/29 10:02:56;;;;;;;4.20;1.98;;;;;;;30.89;32.84;99877.44;4470293;32;33900;-78
2023/06/29 10:05:23;;;;;;;3.37;1.70;;;;;;;30.74;32.05;99869.06;4480131;32;33546;-79
2023/06/29 10:07:53;;;;;;;3.37;1.73;;;;;;;30.59;32.10;99874.97;4473499;32;34066;-77
2023/06/29 10:10:23;;;;;;;3.60;1.70;;;;;;;30.99;30.98;99884.22;4479986;32;34020;-78
2023/06/29 10:12:55;;;;;;;3.83;1.60;;;;;;;31.01;31.86;99871.66;4470070;32;33456;-78
2023/06/29 10:15:25;;;;;;;3.20;1.80;;;;;;;30.95;31.86;99882.59;4479813;32;33381;-78
2023/06/29 10:18:04;;;;;;;3.45;1.83;;;;;;;30.95;32.09;99877.25;4473521;32;32003;-78
2023/06/29 10:20:33;;;;;;;3.40;1.90;;;;;;;31.23;31.47;99877.03;4478790;32;33123;-79
2023/06/29 10:23:03;;;;;;;4.18;1.87;;;;;;;31.27;30.77;99867.06;4468545;32;33447;-78
2023/06/29 10:25:33;;;;;;;2.60;1.60;;;;;;;31.09;32.01;99869.53;4479866;32;33442;-78
2023/06/29 10:28:01;;;;;;;2.62;1.58;;;;;;;31.38;30.17;99859.50;4471622;32;33091;-78
2023/06/29 10:30:29;;;;;;;3.95;1.70;;;;;;;30.94;32.29;99864.78;4483867;32;34395;-79
2023/06/29 10:32:57;;;;;;;3.78;1.80;;;;;;;31.03;32.14;99863.56;4469493;32;34049;-80
2023/06/29 10:35:25;;;;;;;3.47;1.95;;;;;;;30.80;32.71;99856.37;4471684;32;34572;-80
2023/06/29 10:37:57;;;;;;;3.42;1.70;;;;;;;31.06;32.29;99858.09;4480034;32;33500;-79
2023/06/29 10:40:26;;;;;;;3.72;1.80;;;;;;;31.40;31.49;99860.31;4474632;32;33552;-80
2023/06/29 10:42:55;;;;;;;4.45;1.70;;;;;;;31.22;32.00;99859.25;4471328;32;34252;-81
2023/06/29 10:45:23;;;;;;;3.70;1.90;;;;;;;31.47;31.23;99853.81;4472609;32;34295;-79
2023/06/29 10:47:56;;;;;;;5.67;1.90;;;;;;;31.27;31.06;99867.06;4473838;32;33463;-80
2023/06/29 10:50:31;;;;;;;4.20;1.70;;;;;;;30.73;32.61;99856.63;4473860;32;31505;-78
2023/06/29 10:53:00;;;;;;;4.22;1.87;;;;;;;31.06;31.05;99858.97;4474061;32;33181;-78
2023/06/29 10:55:50;;;;;;;4.43;1.80;;;;;;;31.02;31.80;99860.00;4468762;32;34106;-78
2023/06/29 10:58:26;;;;;;;3.55;1.80;;;;;;;30.85;32.42;99854.41;4468930;32;32499;-79
2023/06/29 11:00:55;;;;;;;3.80;1.90;;;;;;;31.24;31.17;99856.50;4472217;31;31932;-79
2023/06/29 11:03:24;;;;;;;4.28;1.83;;;;;;;31.40;31.68;99856.75;4475410;32;34545;-79
2023/06/29 11:05:53;;;;;;;3.35;1.80;;;;;;;31.20;31.34;99858.44;4477555;32;34106;-80
2023/06/29 11:08:22;;;;;;;3.67;1.75;;;;;;;31.47;30.95;99859.16;4481797;32;32523;-78
2023/06/29 11:10:50;;;;;;;7.97;2.20;;;;;;;31.28;30.93;99858.13;4482438;32;33692;-79
2023/06/29 11:13:19;;;;;;;5.18;1.92;;;;;;;31.08;31.57;99857.13;4481800;32;34177;-78
2023/06/29 11:15:56;;;;;;;4.50;2.00;;;;;;;30.95;32.11;99847.81;4483496;32;33941;-79
2023/06/29 11:18:30;;;;;;;3.70;1.70;;;;;;;31.27;31.92;99853.69;4478815;32;32630;-79
2023/06/29 11:21:00;;;;;;;4.75;1.90;;;;;;;31.30;31.76;99842.88;4481291;32;33166;-79
2023/06/29 11:23:27;;;;;;;4.20;1.92;;;;;;;31.29;31.70;99851.81;4479088;32;33801;-79
2023/06/29 11:25:59;;;;;;;3.17;1.67;;;;;;;30.98;32.35;99845.00;4476962;32;33398;-79
2023/06/29 11:28:30;;;;;;;4.60;1.83;;;;;;;31.41;31.30;99854.03;4478007;32;31291;-79
2023/06/29 11:30:58;;;;;;;4.68;1.95;;;;;;;31.23;31.05;99844.06;4467317;32;33201;-79
2023/06/29 11:33:25;;;;;;;3.95;1.90;;;;;;;30.88;31.15;99844.44;4480673;32;33794;-80
2023/06/29 11:36:13;;;;;;;5.18;1.90;;;;;;;30.98;31.68;99838.78;4481189;32;31586;-81
2023/06/29 11:38:41;;;;;;;3.78;1.77;;;;;;;31.28;33.01;99844.75;4477482;32;34269;-81
2023/06/29 11:41:08;;;;;;;4.00;1.80;;;;;;;31.14;31.63;99840.81;4471379;32;33777;-79